Time;durP1;ratioP1;P1;durP2;ratioP2;P2;SDS_P1;SDS_P2;PMS_P1;PMS_P2;Temp;Humidity;BMP_temperature;BMP_pressure;BME280_temperature;BME280_humidity;BME280_pressure;Samples;Min_cycle;Max_cycle;Signal;HPM_P1;HPM_P2
2021/06/26 00:00:16;;;;;;;3.50;2.33;;;;;;;;;;5010238;28;20210;-77
2021/06/26 00:02:42;;;;;;;4.28;2.60;;;;;;;;;;5018438;28;20443;-77
2021/06/26 00:05:09;;;;;;;6.32;3.13;;;;;;;;;;5006692;28;20209;-77
2021/06/26 00:07:35;;;;;;;3.22;2.53;;;;;;;;;;5002903;28;20179;-78
2021/06/26 00:10:01;;;;;;;5.30;2.90;;;;;;;;;;5002329;28;20195;-77
2021/06/26 00:12:27;;;;;;;8.50;3.25;;;;;;;;;;5002330;28;20241;-77
2021/06/26 00:14:53;;;;;;;9.48;3.70;;;;;;;;;;5003283;28;20263;-77
2021/06/26 00:17:19;;;;;;;7.72;4.50;;;;;;;;;;5005574;28;20187;-78
2021/06/26 00:19:46;;;;;;;5.03;3.83;;;;;;;;;;5003224;28;20234;-79
2021/06/26 00:22:12;;;;;;;5.03;3.20;;;;;;;;;;5017778;28;20438;-78
2021/06/26 00:24:37;;;;;;;7.63;3.43;;;;;;;;;;5001608;28;20189;-77
2021/06/26 00:27:04;;;;;;;6.53;3.10;;;;;;;;;;5001908;28;20434;-77
2021/06/26 00:29:30;;;;;;;9.82;3.78;;;;;;;;;;5019413;28;20460;-77
2021/06/26 00:31:56;;;;;;;5.60;2.90;;;;;;;;;;5001321;28;20247;-77
2021/06/26 00:34:22;;;;;;;4.63;3.10;;;;;;;;;;5016779;28;20529;-76
2021/06/26 00:36:48;;;;;;;5.63;2.80;;;;;;;;;;5001771;28;20227;-77
2021/06/26 00:39:14;;;;;;;6.70;3.33;;;;;;;;;;5001838;28;20487;-77
2021/06/26 00:41:40;;;;;;;12.38;3.35;;;;;;;;;;5013994;28;20440;-77
2021/06/26 00:44:07;;;;;;;7.30;3.83;;;;;;;;;;5017543;28;20270;-77
2021/06/26 00:46:34;;;;;;;5.57;3.47;;;;;;;;;;5001655;28;20179;-77
2021/06/26 00:49:00;;;;;;;5.93;3.53;;;;;;;;;;5001440;28;20191;-76
2021/06/26 00:51:26;;;;;;;7.57;3.88;;;;;;;;;;5001206;28;20186;-77
2021/06/26 00:53:52;;;;;;;6.32;3.63;;;;;;;;;;5017720;28;20193;-77
2021/06/26 00:56:18;;;;;;;6.23;4.40;;;;;;;;;;5020007;28;20700;-77
2021/06/26 00:58:44;;;;;;;10.80;4.80;;;;;;;;;;5002824;28;20522;-78
2021/06/26 01:01:12;;;;;;;9.60;4.82;;;;;;;;;;5001484;28;20187;-77
2021/06/26 01:03:38;;;;;;;9.00;4.68;;;;;;;;;;5004293;28;20183;-76
2021/06/26 01:06:04;;;;;;;8.55;5.07;;;;;;;;;;5001739;28;20255;-77
2021/06/26 01:08:31;;;;;;;8.43;4.78;;;;;;;;;;5019138;28;20192;-76
2021/06/26 01:10:57;;;;;;;14.73;5.38;;;;;;;;;;5004349;28;20171;-76
2021/06/26 01:13:23;;;;;;;7.65;4.82;;;;;;;;;;5002262;28;20183;-75
2021/06/26 01:15:52;;;;;;;8.20;4.50;;;;;;;;;;5001778;28;20286;-76
2021/06/26 01:18:18;;;;;;;9.00;5.05;;;;;;;;;;5001103;28;20171;-75
2021/06/26 01:20:44;;;;;;;6.88;3.97;;;;;;;;;;5016471;28;20199;-76
2021/06/26 01:23:13;;;;;;;7.67;5.13;;;;;;;;;;5018759;28;20186;-76
2021/06/26 01:25:39;;;;;;;7.47;4.57;;;;;;;;;;5001825;28;20422;-75
2021/06/26 01:28:05;;;;;;;7.00;4.72;;;;;;;;;;5000414;28;20186;-76
2021/06/26 01:30:33;;;;;;;8.60;4.30;;;;;;;;;;5013175;28;20187;-75
2021/06/26 01:32:59;;;;;;;12.52;4.85;;;;;;;;;;5000992;28;20194;-75
2021/06/26 01:35:25;;;;;;;14.55;5.25;;;;;;;;;;5017635;28;20549;-75
2021/06/26 01:37:51;;;;;;;12.85;5.72;;;;;;;;;;5002573;28;20190;-75
2021/06/26 01:40:18;;;;;;;14.80;4.75;;;;;;;;;;5016779;28;20297;-76
2021/06/26 01:42:45;;;;;;;8.52;4.72;;;;;;;;;;5001832;28;20250;-76
2021/06/26 01:45:12;;;;;;;11.05;5.80;;;;;;;;;;5002186;28;20187;-75
2021/06/26 01:47:38;;;;;;;13.00;5.38;;;;;;;;;;5015730;28;20190;-76
2021/06/26 01:50:05;;;;;;;13.75;4.70;;;;;;;;;;5004866;28;20203;-76
2021/06/26 01:52:31;;;;;;;11.38;5.07;;;;;;;;;;5001588;28;20187;-76
2021/06/26 01:54:57;;;;;;;11.73;5.00;;;;;;;;;;5000027;28;20201;-76
2021/06/26 01:57:23;;;;;;;8.00;4.53;;;;;;;;;;5001204;28;20446;-76
2021/06/26 01:59:49;;;;;;;11.05;4.40;;;;;;;;;;5016485;28;20238;-76
2021/06/26 02:02:15;;;;;;;9.97;4.57;;;;;;;;;;5019125;28;20183;-76
2021/06/26 02:04:41;;;;;;;11.68;5.32;;;;;;;;;;5001003;28;20511;-76
2021/06/26 02:07:07;;;;;;;8.60;5.20;;;;;;;;;;5015761;28;20190;-75
2021/06/26 02:09:33;;;;;;;11.20;5.10;;;;;;;;;;4999049;28;20457;-76
2021/06/26 02:11:58;;;;;;;10.67;5.20;;;;;;;;;;5016790;28;20441;-76
2021/06/26 02:14:24;;;;;;;11.50;5.20;;;;;;;;;;5017711;28;20430;-76
2021/06/26 02:16:50;;;;;;;10.07;4.80;;;;;;;;;;5001757;28;20474;-76
2021/06/26 02:19:16;;;;;;;12.23;5.93;;;;;;;;;;4998417;28;20974;-76
2021/06/26 02:21:42;;;;;;;11.38;4.95;;;;;;;;;;5000562;28;20187;-76
2021/06/26 02:24:09;;;;;;;11.75;5.13;;;;;;;;;;5001334;28;20189;-76
2021/06/26 02:26:35;;;;;;;9.70;5.25;;;;;;;;;;4996709;28;20562;-76
2021/06/26 02:29:01;;;;;;;10.50;5.50;;;;;;;;;;4999745;28;20183;-76
2021/06/26 02:31:27;;;;;;;12.82;5.20;;;;;;;;;;5015238;28;20796;-76
2021/06/26 02:33:53;;;;;;;9.30;5.10;;;;;;;;;;4999540;28;20221;-76
2021/06/26 02:36:19;;;;;;;20.75;6.20;;;;;;;;;;4999131;28;20453;-75
2021/06/26 02:38:45;;;;;;;14.10;5.55;;;;;;;;;;5001085;28;20214;-75
2021/06/26 02:41:11;;;;;;;14.23;6.20;;;;;;;;;;5019221;28;20179;-75
2021/06/26 02:43:37;;;;;;;10.38;4.78;;;;;;;;;;5001825;28;20489;-76
2021/06/26 02:46:03;;;;;;;12.98;5.05;;;;;;;;;;5000251;28;20194;-75
2021/06/26 02:48:29;;;;;;;19.90;5.65;;;;;;;;;;5015384;28;20179;-76
2021/06/26 02:50:55;;;;;;;15.27;5.20;;;;;;;;;;4999847;28;20202;-76
2021/06/26 02:53:21;;;;;;;12.43;4.83;;;;;;;;;;5018423;28;20417;-76
2021/06/26 02:55:55;;;;;;;8.70;4.27;;;;;;;;;;5000787;28;20430;-76
2021/06/26 02:58:21;;;;;;;7.45;4.35;;;;;;;;;;4995920;28;20496;-76
2021/06/26 03:00:47;;;;;;;6.53;3.88;;;;;;;;;;4994544;28;20576;-76
2021/06/26 03:03:13;;;;;;;6.50;3.40;;;;;;;;;;5000456;28;20179;-76
2021/06/26 03:05:39;;;;;;;9.70;3.50;;;;;;;;;;5000525;28;20526;-75
2021/06/26 03:08:06;;;;;;;8.38;4.15;;;;;;;;;;5018904;28;20550;-76
2021/06/26 03:10:32;;;;;;;8.20;3.90;;;;;;;;;;5000866;28;20167;-76
2021/06/26 03:12:58;;;;;;;6.17;3.30;;;;;;;;;;5001070;28;20206;-75
2021/06/26 03:15:24;;;;;;;7.00;3.53;;;;;;;;;;5000092;28;20521;-75
2021/06/26 03:17:50;;;;;;;5.93;3.90;;;;;;;;;;5015117;28;20450;-76
2021/06/26 03:20:16;;;;;;;6.17;3.40;;;;;;;;;;5017909;28;20497;-76
2021/06/26 03:22:42;;;;;;;8.40;3.30;;;;;;;;;;4997002;28;20431;-75
2021/06/26 03:25:09;;;;;;;10.75;3.45;;;;;;;;;;5012511;28;20588;-75
2021/06/26 03:27:36;;;;;;;9.13;4.00;;;;;;;;;;4999118;28;20183;-75
2021/06/26 03:30:03;;;;;;;11.63;3.88;;;;;;;;;;5000454;28;20599;-75
2021/06/26 03:32:29;;;;;;;8.77;3.20;;;;;;;;;;5016195;28;20183;-75
2021/06/26 03:34:55;;;;;;;8.67;3.37;;;;;;;;;;5003502;28;20298;-75
2021/06/26 03:37:21;;;;;;;8.10;3.60;;;;;;;;;;4999934;28;20437;-75
2021/06/26 03:39:47;;;;;;;8.90;3.60;;;;;;;;;;4999038;28;20436;-75
2021/06/26 03:42:13;;;;;;;6.20;3.77;;;;;;;;;;5000394;28;20438;-75
2021/06/26 03:44:39;;;;;;;9.43;3.75;;;;;;;;;;5014470;28;20455;-75
2021/06/26 03:47:05;;;;;;;8.50;3.50;;;;;;;;;;5003638;28;20179;-75
2021/06/26 03:49:35;;;;;;;4.50;3.58;;;;;;;;;;5000910;28;20434;-75
2021/06/26 03:52:01;;;;;;;8.35;3.70;;;;;;;;;;5000092;28;20522;-75
2021/06/26 03:54:27;;;;;;;7.68;3.90;;;;;;;;;;5000024;28;20195;-75
2021/06/26 03:56:53;;;;;;;7.25;3.53;;;;;;;;;;5000039;28;20545;-75
2021/06/26 03:59:19;;;;;;;7.83;4.20;;;;;;;;;;5017120;28;20215;-76
2021/06/26 04:01:45;;;;;;;4.80;2.85;;;;;;;;;;5002118;28;20445;-75
2021/06/26 04:04:11;;;;;;;7.90;3.87;;;;;;;;;;5002485;28;20183;-75
2021/06/26 04:06:38;;;;;;;5.47;3.10;;;;;;;;;;5002168;28;20446;-75
2021/06/26 04:09:04;;;;;;;6.82;3.15;;;;;;;;;;5002468;28;20458;-75
2021/06/26 04:11:30;;;;;;;7.57;3.92;;;;;;;;;;5020399;28;20632;-75
2021/06/26 04:13:56;;;;;;;7.13;4.00;;;;;;;;;;5006897;28;20213;-75
2021/06/26 04:16:22;;;;;;;6.50;3.30;;;;;;;;;;5018262;28;20549;-75
2021/06/26 04:18:48;;;;;;;11.27;3.90;;;;;;;;;;5018342;28;20505;-76
2021/06/26 04:21:14;;;;;;;7.40;3.00;;;;;;;;;;5003821;28;20179;-75
2021/06/26 04:23:40;;;;;;;8.20;3.50;;;;;;;;;;5003595;28;20520;-76
2021/06/26 04:26:06;;;;;;;10.35;3.70;;;;;;;;;;5021603;28;20510;-75
2021/06/26 04:28:32;;;;;;;6.88;3.38;;;;;;;;;;5002301;28;20619;-76
2021/06/26 04:30:58;;;;;;;6.72;3.30;;;;;;;;;;5001561;28;20205;-76
2021/06/26 04:33:28;;;;;;;4.47;3.30;;;;;;;;;;5005017;28;20175;-76
2021/06/26 04:35:54;;;;;;;4.38;2.95;;;;;;;;;;5002727;28;20251;-76
2021/06/26 04:38:23;;;;;;;4.32;3.47;;;;;;;;;;5020315;28;20182;-76
2021/06/26 04:40:51;;;;;;;11.35;3.15;;;;;;;;;;5002978;28;20246;-75
2021/06/26 04:43:17;;;;;;;3.90;3.05;;;;;;;;;;5018112;28;20214;-75
2021/06/26 04:45:44;;;;;;;5.55;3.00;;;;;;;;;;5002825;28;20649;-75
2021/06/26 04:48:10;;;;;;;5.38;2.80;;;;;;;;;;5002404;28;20201;-75
2021/06/26 04:50:36;;;;;;;6.15;3.58;;;;;;;;;;5013685;28;20536;-75
2021/06/26 04:53:02;;;;;;;5.13;3.20;;;;;;;;;;5004643;28;20644;-76
2021/06/26 04:55:28;;;;;;;6.78;3.22;;;;;;;;;;5003042;28;20194;-75
2021/06/26 04:57:54;;;;;;;9.13;3.20;;;;;;;;;;5017611;28;20230;-75
2021/06/26 05:00:21;;;;;;;6.78;3.75;;;;;;;;;;5015569;28;20668;-75
2021/06/26 05:02:47;;;;;;;5.25;3.03;;;;;;;;;;5017557;28;20665;-75
2021/06/26 05:05:13;;;;;;;8.73;3.60;;;;;;;;;;5020207;28;20175;-76
2021/06/26 05:07:39;;;;;;;6.18;3.10;;;;;;;;;;5004164;28;20423;-76
2021/06/26 05:10:05;;;;;;;4.88;3.08;;;;;;;;;;5000903;28;20183;-76
2021/06/26 05:12:31;;;;;;;6.88;3.30;;;;;;;;;;5001253;28;20193;-76
2021/06/26 05:14:57;;;;;;;9.13;3.97;;;;;;;;;;5017157;28;20223;-75
2021/06/26 05:17:23;;;;;;;4.82;3.15;;;;;;;;;;5019309;28;20485;-75
2021/06/26 05:19:49;;;;;;;8.70;3.53;;;;;;;;;;5002425;28;20203;-75
2021/06/26 05:22:15;;;;;;;6.22;3.60;;;;;;;;;;5002145;28;20442;-75
2021/06/26 05:24:42;;;;;;;3.92;3.55;;;;;;;;;;5012799;28;20726;-76
2021/06/26 05:27:08;;;;;;;5.70;3.40;;;;;;;;;;5001185;28;20179;-76
2021/06/26 05:29:39;;;;;;;4.90;3.60;;;;;;;;;;5016906;28;20194;-76
2021/06/26 05:32:06;;;;;;;3.60;3.05;;;;;;;;;;5004576;28;20209;-76
2021/06/26 05:34:32;;;;;;;4.45;3.17;;;;;;;;;;5002532;28;20195;-76
2021/06/26 05:36:58;;;;;;;4.85;3.30;;;;;;;;;;5016127;28;20206;-76
2021/06/26 05:39:24;;;;;;;7.45;3.63;;;;;;;;;;5014782;28;20207;-76
2021/06/26 05:41:50;;;;;;;6.97;3.50;;;;;;;;;;5013569;28;20187;-76
2021/06/26 05:44:16;;;;;;;3.83;3.10;;;;;;;;;;5019190;28;20426;-76
2021/06/26 05:46:42;;;;;;;5.20;3.33;;;;;;;;;;5001300;28;20485;-76
2021/06/26 05:49:07;;;;;;;3.30;2.97;;;;;;;;;;5001579;28;20508;-76
2021/06/26 05:51:34;;;;;;;4.73;3.53;;;;;;;;;;5001392;28;20439;-75
2021/06/26 05:54:00;;;;;;;6.40;3.60;;;;;;;;;;5016461;28;20441;-75
2021/06/26 05:56:25;;;;;;;7.10;3.47;;;;;;;;;;5018486;28;20186;-76
2021/06/26 05:58:52;;;;;;;3.67;3.17;;;;;;;;;;5003722;28;20203;-76
2021/06/26 06:01:19;;;;;;;5.82;3.40;;;;;;;;;;5001959;28;20436;-76
2021/06/26 06:03:47;;;;;;;5.53;3.13;;;;;;;;;;5003210;28;20210;-76
2021/06/26 06:06:14;;;;;;;5.70;2.95;;;;;;;;;;5001366;28;20206;-75
2021/06/26 06:08:39;;;;;;;9.88;3.60;;;;;;;;;;5001077;28;20175;-76
2021/06/26 06:11:05;;;;;;;8.90;3.63;;;;;;;;;;5005027;28;20181;-75
2021/06/26 06:13:32;;;;;;;11.27;3.77;;;;;;;;;;5000741;28;20415;-76
2021/06/26 06:15:58;;;;;;;4.53;3.38;;;;;;;;;;5000680;28;20495;-76
2021/06/26 06:18:24;;;;;;;4.45;3.50;;;;;;;;;;5001150;28;20191;-76
2021/06/26 06:20:50;;;;;;;6.05;3.55;;;;;;;;;;5015910;28;20210;-76
2021/06/26 06:23:16;;;;;;;7.88;3.60;;;;;;;;;;5003459;28;20178;-76
2021/06/26 06:25:43;;;;;;;9.07;3.25;;;;;;;;;;5002134;28;20633;-76
2021/06/26 06:28:09;;;;;;;5.22;2.90;;;;;;;;;;4997526;28;20182;-76
2021/06/26 06:30:35;;;;;;;4.33;3.30;;;;;;;;;;5013923;28;20277;-75
2021/06/26 06:33:02;;;;;;;7.82;3.30;;;;;;;;;;4999397;28;20441;-76
2021/06/26 06:35:28;;;;;;;5.32;2.85;;;;;;;;;;5017524;28;20237;-75
2021/06/26 06:37:54;;;;;;;4.90;3.45;;;;;;;;;;5001928;28;20179;-75
2021/06/26 06:40:21;;;;;;;4.43;2.72;;;;;;;;;;4992486;28;20215;-74
2021/06/26 06:42:47;;;;;;;3.38;2.83;;;;;;;;;;4994718;28;20179;-74
2021/06/26 06:45:14;;;;;;;4.07;2.78;;;;;;;;;;5002618;28;20179;-75
2021/06/26 06:47:40;;;;;;;3.30;2.70;;;;;;;;;;5015903;28;20179;-73
2021/06/26 06:50:07;;;;;;;9.00;3.10;;;;;;;;;;5003286;28;20527;-73
2021/06/26 06:52:33;;;;;;;5.05;3.00;;;;;;;;;;5001482;28;20183;-74
2021/06/26 06:54:59;;;;;;;5.30;3.10;;;;;;;;;;5014439;28;20197;-74
2021/06/26 06:57:25;;;;;;;3.95;2.97;;;;;;;;;;5011937;28;20915;-74
2021/06/26 06:59:52;;;;;;;5.85;3.03;;;;;;;;;;5000999;28;20207;-74
2021/06/26 07:02:19;;;;;;;4.45;3.00;;;;;;;;;;5014459;28;20179;-74
2021/06/26 07:04:45;;;;;;;5.05;2.85;;;;;;;;;;5010940;28;20190;-74
2021/06/26 07:07:11;;;;;;;5.03;3.00;;;;;;;;;;4997879;28;20183;-74
2021/06/26 07:09:37;;;;;;;5.28;3.03;;;;;;;;;;4998343;28;20441;-74
2021/06/26 07:12:03;;;;;;;4.05;2.85;;;;;;;;;;5016286;28;20182;-74
2021/06/26 07:14:29;;;;;;;3.45;3.05;;;;;;;;;;5010697;28;20195;-74
2021/06/26 07:16:55;;;;;;;5.13;3.50;;;;;;;;;;5001247;28;20246;-74
2021/06/26 07:19:21;;;;;;;5.17;3.20;;;;;;;;;;4998298;28;20214;-74
2021/06/26 07:21:47;;;;;;;5.97;2.70;;;;;;;;;;4997315;28;20633;-74
2021/06/26 07:24:13;;;;;;;2.90;2.60;;;;;;;;;;4999404;28;20434;-74
2021/06/26 07:26:39;;;;;;;5.85;2.95;;;;;;;;;;5001478;28;20453;-75
2021/06/26 07:29:06;;;;;;;4.80;2.60;;;;;;;;;;5018439;28;20201;-75
2021/06/26 07:31:32;;;;;;;4.57;3.20;;;;;;;;;;5001328;28;20651;-75
2021/06/26 07:33:58;;;;;;;7.00;3.03;;;;;;;;;;4999187;28;20191;-75
2021/06/26 07:36:24;;;;;;;4.83;3.07;;;;;;;;;;5001732;28;20269;-75
2021/06/26 07:38:50;;;;;;;3.80;2.85;;;;;;;;;;5003395;28;20466;-75
2021/06/26 07:41:16;;;;;;;7.13;2.35;;;;;;;;;;5005365;28;20258;-75
2021/06/26 07:43:42;;;;;;;6.07;2.63;;;;;;;;;;5004228;28;20488;-75
2021/06/26 07:46:08;;;;;;;4.63;2.95;;;;;;;;;;5002891;28;20949;-74
2021/06/26 07:48:34;;;;;;;7.97;3.03;;;;;;;;;;5016940;28;20383;-75
2021/06/26 07:51:00;;;;;;;3.67;3.07;;;;;;;;;;5018786;28;20446;-75
2021/06/26 07:53:26;;;;;;;7.40;2.70;;;;;;;;;;5020655;28;20427;-75
2021/06/26 07:55:53;;;;;;;3.00;2.37;;;;;;;;;;5006020;28;20255;-74
2021/06/26 07:58:22;;;;;;;2.35;2.08;;;;;;;;;;5001535;28;20501;-75
2021/06/26 08:00:48;;;;;;;2.75;2.40;;;;;;;;;;5001279;28;20218;-74
2021/06/26 08:03:18;;;;;;;4.55;2.22;;;;;;;;;;5018409;28;20183;-75
2021/06/26 08:05:44;;;;;;;4.57;2.15;;;;;;;;;;5003419;28;20218;-75
2021/06/26 08:08:10;;;;;;;3.20;1.83;;;;;;;;;;5006331;28;20648;-75
2021/06/26 08:10:37;;;;;;;2.65;2.05;;;;;;;;;;5001702;28;20190;-75
2021/06/26 08:13:03;;;;;;;2.35;2.15;;;;;;;;;;5004998;28;20203;-75
2021/06/26 08:15:29;;;;;;;3.03;1.80;;;;;;;;;;5003369;28;20254;-75
2021/06/26 08:17:55;;;;;;;5.35;2.30;;;;;;;;;;5019163;28;20278;-75
2021/06/26 08:20:22;;;;;;;1.75;1.58;;;;;;;;;;5021085;28;20238;-75
2021/06/26 08:22:48;;;;;;;2.03;1.90;;;;;;;;;;5002536;28;20186;-75
2021/06/26 08:25:14;;;;;;;3.53;2.15;;;;;;;;;;5002551;28;20687;-76
2021/06/26 08:27:40;;;;;;;4.05;2.33;;;;;;;;;;5017862;28;20176;-76
2021/06/26 08:30:07;;;;;;;3.40;1.77;;;;;;;;;;5018184;28;20238;-76
2021/06/26 08:32:34;;;;;;;1.92;1.73;;;;;;;;;;5018713;28;20183;-76
2021/06/26 08:35:00;;;;;;;2.38;2.17;;;;;;;;;;5021521;28;20187;-77
2021/06/26 08:37:26;;;;;;;2.50;2.20;;;;;;;;;;5000910;28;20191;-77
2021/06/26 08:39:52;;;;;;;3.30;2.47;;;;;;;;;;5017405;28;20458;-76
2021/06/26 08:42:18;;;;;;;3.33;2.22;;;;;;;;;;5002211;28;20497;-77
2021/06/26 08:44:47;;;;;;;2.47;1.95;;;;;;;;;;5004193;28;20187;-77
2021/06/26 08:47:14;;;;;;;4.00;2.78;;;;;;;;;;4998039;28;20239;-78
2021/06/26 08:49:40;;;;;;;3.30;2.42;;;;;;;;;;5003930;28;20298;-77
2021/06/26 08:52:06;;;;;;;2.70;2.50;;;;;;;;;;5002153;28;20187;-77
2021/06/26 08:54:32;;;;;;;2.50;2.30;;;;;;;;;;5014822;28;20446;-77
2021/06/26 08:56:58;;;;;;;2.40;2.13;;;;;;;;;;5016451;28;20184;-76
2021/06/26 08:59:24;;;;;;;2.50;2.33;;;;;;;;;;5004966;28;20440;-77
2021/06/26 09:01:50;;;;;;;2.95;2.10;;;;;;;;;;5004546;28;20418;-77
2021/06/26 09:04:18;;;;;;;3.60;2.33;;;;;;;;;;4999494;28;20206;-77
2021/06/26 09:06:50;;;;;;;2.80;2.22;;;;;;;;;;5019049;28;20793;-77
2021/06/26 09:09:16;;;;;;;3.42;2.33;;;;;;;;;;5014457;28;20248;-77
2021/06/26 09:11:42;;;;;;;4.25;2.55;;;;;;;;;;5017336;28;20183;-77
2021/06/26 09:14:20;;;;;;;2.70;2.25;;;;;;;;;;5020427;28;20233;-78
2021/06/26 09:16:51;;;;;;;2.22;2.13;;;;;;;;;;5000816;28;20301;-77
2021/06/26 09:19:17;;;;;;;2.17;1.98;;;;;;;;;;5016494;28;20203;-78
2021/06/26 09:21:45;;;;;;;2.15;1.65;;;;;;;;;;4999992;28;20595;-78
2021/06/26 09:24:12;;;;;;;2.75;1.95;;;;;;;;;;5000916;28;20203;-78
2021/06/26 09:26:42;;;;;;;2.40;1.80;;;;;;;;;;5013933;28;20196;-78
2021/06/26 09:29:09;;;;;;;2.40;2.20;;;;;;;;;;4995533;28;20218;-77
2021/06/26 09:31:35;;;;;;;2.25;2.05;;;;;;;;;;5000466;28;20182;-79
2021/06/26 09:34:03;;;;;;;4.05;2.05;;;;;;;;;;5000027;28;20234;-79
2021/06/26 09:36:31;;;;;;;2.05;1.95;;;;;;;;;;5011933;28;20213;-79
2021/06/26 09:39:01;;;;;;;2.83;2.28;;;;;;;;;;4999547;28;20207;-79
2021/06/26 09:41:28;;;;;;;5.38;2.25;;;;;;;;;;5003039;28;20180;-78
2021/06/26 09:43:54;;;;;;;2.60;2.40;;;;;;;;;;5004194;28;20188;-79
2021/06/26 09:46:20;;;;;;;2.88;2.08;;;;;;;;;;5002109;28;20247;-79
2021/06/26 09:48:53;;;;;;;3.97;2.40;;;;;;;;;;5001364;28;20196;-79
2021/06/26 09:51:20;;;;;;;3.25;2.03;;;;;;;;;;5004432;28;20199;-79
2021/06/26 09:53:53;;;;;;;2.55;2.35;;;;;;;;;;5016844;28;20193;-79
2021/06/26 09:56:19;;;;;;;2.50;2.30;;;;;;;;;;5019264;28;20199;-79
2021/06/26 09:58:52;;;;;;;2.38;2.17;;;;;;;;;;5002724;28;20207;-78
2021/06/26 10:01:19;;;;;;;2.92;2.00;;;;;;;;;;5012063;28;20184;-79
2021/06/26 10:03:45;;;;;;;2.67;2.47;;;;;;;;;;5008861;28;20191;-79
2021/06/26 10:06:11;;;;;;;2.90;2.53;;;;;;;;;;4999474;28;20207;-78
2021/06/26 10:08:38;;;;;;;2.22;2.03;;;;;;;;;;5000466;28;20176;-79
2021/06/26 10:11:04;;;;;;;2.50;1.90;;;;;;;;;;5003893;28;20524;-78
2021/06/26 10:13:31;;;;;;;2.45;2.25;;;;;;;;;;5000100;28;20207;-79
2021/06/26 10:15:57;;;;;;;3.47;2.53;;;;;;;;;;5015573;28;20310;-78
2021/06/26 10:18:23;;;;;;;3.25;2.47;;;;;;;;;;5016531;28;20192;-79
2021/06/26 10:20:49;;;;;;;2.72;2.25;;;;;;;;;;5012776;28;20207;-78
2021/06/26 10:23:15;;;;;;;2.55;2.00;;;;;;;;;;5003675;28;20172;-78
2021/06/26 10:25:42;;;;;;;3.13;2.20;;;;;;;;;;5002323;28;20172;-78
2021/06/26 10:28:09;;;;;;;2.85;2.65;;;;;;;;;;5000436;28;20188;-78
2021/06/26 10:30:35;;;;;;;4.30;2.45;;;;;;;;;;4999382;28;20192;-78
2021/06/26 10:33:03;;;;;;;2.83;1.98;;;;;;;;;;5013742;28;20275;-78
2021/06/26 10:35:30;;;;;;;2.60;2.40;;;;;;;;;;5000690;28;20204;-77
2021/06/26 10:38:00;;;;;;;2.25;2.05;;;;;;;;;;4999191;28;20251;-78
2021/06/26 10:40:40;;;;;;;3.17;2.05;;;;;;;;;;4998451;28;20294;-77
2021/06/26 10:43:17;;;;;;;3.10;2.80;;;;;;;;;;4998453;28;20194;-78
2021/06/26 10:45:44;;;;;;;2.05;1.85;;;;;;;;;;4999547;28;20251;-78
2021/06/26 10:48:15;;;;;;;3.40;2.55;;;;;;;;;;5015023;28;20264;-78
2021/06/26 10:50:49;;;;;;;2.20;2.00;;;;;;;;;;5015024;28;20184;-77
2021/06/26 10:53:32;;;;;;;3.08;2.78;;;;;;;;;;5003280;28;20179;-77
2021/06/26 10:55:59;;;;;;;5.45;3.10;;;;;;;;;;5001579;28;20458;-77
2021/06/26 10:58:32;;;;;;;3.28;3.00;;;;;;;;;;4995532;28;20212;-77
2021/06/26 11:00:59;;;;;;;3.33;2.55;;;;;;;;;;4998167;28;20204;-77
2021/06/26 11:03:30;;;;;;;4.38;3.13;;;;;;;;;;5015321;28;20267;-78
2021/06/26 11:05:57;;;;;;;5.25;2.70;;;;;;;;;;5001930;28;20665;-78
2021/06/26 11:08:24;;;;;;;3.40;2.95;;;;;;;;;;5009475;28;20284;-77
2021/06/26 11:11:00;;;;;;;3.00;2.70;;;;;;;;;;5018484;28;20198;-77
2021/06/26 11:13:27;;;;;;;4.15;2.80;;;;;;;;;;5006495;28;20674;-78
2021/06/26 11:16:03;;;;;;;2.08;1.92;;;;;;;;;;5002857;28;20260;-77
2021/06/26 11:18:29;;;;;;;3.42;2.25;;;;;;;;;;5004083;28;20203;-78
2021/06/26 11:20:56;;;;;;;2.93;2.73;;;;;;;;;;5005342;28;20557;-78
2021/06/26 11:23:22;;;;;;;2.90;2.30;;;;;;;;;;5020773;28;20466;-77
2021/06/26 11:25:48;;;;;;;3.40;3.10;;;;;;;;;;5005761;28;20196;-77
2021/06/26 11:28:16;;;;;;;2.75;2.55;;;;;;;;;;5004238;28;20478;-78
2021/06/26 11:30:43;;;;;;;3.33;2.97;;;;;;;;;;5003656;28;20192;-78
2021/06/26 11:33:09;;;;;;;2.70;2.50;;;;;;;;;;5019377;28;20210;-77
2021/06/26 11:35:36;;;;;;;3.05;2.75;;;;;;;;;;5020091;28;20195;-77
2021/06/26 11:38:03;;;;;;;3.10;2.27;;;;;;;;;;5005421;28;20202;-77
2021/06/26 11:40:29;;;;;;;2.97;2.40;;;;;;;;;;5003831;28;20469;-77
2021/06/26 11:42:58;;;;;;;2.17;2.07;;;;;;;;;;5013015;28;20409;-77
2021/06/26 11:45:26;;;;;;;2.33;2.13;;;;;;;;;;5002376;28;20434;-77
2021/06/26 11:48:03;;;;;;;5.60;2.57;;;;;;;;;;5004130;28;20409;-76
2021/06/26 11:50:30;;;;;;;3.20;2.93;;;;;;;;;;5005399;28;20513;-77
2021/06/26 11:53:06;;;;;;;2.80;2.60;;;;;;;;;;5003959;28;20430;-77
2021/06/26 11:55:36;;;;;;;2.90;2.33;;;;;;;;;;5002853;28;20744;-77
2021/06/26 11:58:02;;;;;;;3.20;2.83;;;;;;;;;;5001870;28;20656;-77
2021/06/26 12:00:28;;;;;;;4.43;3.13;;;;;;;;;;5003003;28;20537;-77
2021/06/26 12:02:54;;;;;;;3.33;3.07;;;;;;;;;;5005047;28;20209;-77
2021/06/26 12:05:20;;;;;;;3.10;2.90;;;;;;;;;;5021016;28;20563;-77
2021/06/26 12:07:47;;;;;;;3.42;3.05;;;;;;;;;;5004322;28;20262;-77
2021/06/26 12:10:13;;;;;;;4.80;2.83;;;;;;;;;;5000117;28;20185;-76
2021/06/26 12:12:39;;;;;;;3.45;3.15;;;;;;;;;;4995664;28;20186;-76
2021/06/26 12:15:06;;;;;;;3.50;3.05;;;;;;;;;;5002753;28;20221;-76
2021/06/26 12:17:32;;;;;;;3.38;2.90;;;;;;;;;;5019079;28;20273;-76
2021/06/26 12:20:06;;;;;;;3.40;3.20;;;;;;;;;;5004194;28;20219;-76
2021/06/26 12:22:32;;;;;;;5.55;4.10;;;;;;;;;;5002299;28;20245;-75
2021/06/26 12:25:26;;;;;;;4.53;3.47;;;;;;;;;;5002649;28;20248;-76
2021/06/26 12:28:00;;;;;;;3.57;3.30;;;;;;;;;;5016920;28;20409;-76
2021/06/26 12:30:26;;;;;;;3.00;2.80;;;;;;;;;;5003088;28;20441;-75
2021/06/26 12:33:02;;;;;;;3.87;3.57;;;;;;;;;;5005109;28;20429;-75
2021/06/26 12:35:29;;;;;;;3.10;2.87;;;;;;;;;;4999038;28;20763;-75
2021/06/26 12:37:55;;;;;;;3.00;2.80;;;;;;;;;;5004197;28;20430;-75
2021/06/26 12:40:26;;;;;;;3.20;3.00;;;;;;;;;;5003590;28;20473;-75
2021/06/26 12:42:55;;;;;;;4.53;3.43;;;;;;;;;;5000846;28;20878;-76
2021/06/26 12:45:45;;;;;;;3.30;3.00;;;;;;;;;;5003136;28;20439;-75
2021/06/26 12:48:12;;;;;;;5.00;3.20;;;;;;;;;;5013805;28;20434;-75
2021/06/26 12:51:04;;;;;;;3.77;3.47;;;;;;;;;;4998341;28;20448;-75
2021/06/26 12:53:35;;;;;;;4.20;3.70;;;;;;;;;;5018860;28;20445;-76
2021/06/26 12:56:05;;;;;;;9.23;3.93;;;;;;;;;;5003952;28;20522;-74
2021/06/26 12:58:31;;;;;;;4.17;3.40;;;;;;;;;;5002069;28;20505;-75
2021/06/26 13:00:57;;;;;;;4.53;4.10;;;;;;;;;;5016547;28;20747;-75
2021/06/26 13:03:23;;;;;;;4.27;3.63;;;;;;;;;;5001010;28;20634;-74
2021/06/26 13:05:49;;;;;;;4.90;3.50;;;;;;;;;;5000850;28;21075;-74
2021/06/26 13:08:19;;;;;;;3.37;3.17;;;;;;;;;;5019057;28;20421;-74
2021/06/26 13:10:49;;;;;;;4.63;4.00;;;;;;;;;;5000702;28;20430;-74
2021/06/26 13:13:15;;;;;;;4.33;3.60;;;;;;;;;;5014548;28;20690;-74
2021/06/26 13:15:41;;;;;;;6.33;4.00;;;;;;;;;;5003116;28;20972;-73
2021/06/26 13:18:07;;;;;;;4.60;4.17;;;;;;;;;;5015923;28;20438;-73
2021/06/26 13:20:33;;;;;;;4.80;4.07;;;;;;;;;;5002731;28;20474;-73
2021/06/26 13:22:59;;;;;;;3.87;3.57;;;;;;;;;;5005372;28;20444;-73
2021/06/26 13:25:25;;;;;;;4.20;3.80;;;;;;;;;;5001377;28;20878;-73
2021/06/26 13:27:51;;;;;;;6.33;5.30;;;;;;;;;;5001217;28;20443;-74
2021/06/26 13:30:18;;;;;;;4.47;4.07;;;;;;;;;;5015631;28;20442;-74
2021/06/26 13:32:44;;;;;;;6.50;4.63;;;;;;;;;;5016989;28;20429;-73
2021/06/26 13:35:11;;;;;;;5.70;4.33;;;;;;;;;;5017772;28;20435;-74
2021/06/26 13:37:37;;;;;;;5.47;4.67;;;;;;;;;;4996951;28;20532;-74
2021/06/26 13:40:06;;;;;;;6.70;5.20;;;;;;;;;;4998642;28;20457;-74
2021/06/26 13:42:32;;;;;;;6.73;5.10;;;;;;;;;;5016061;28;20948;-74
2021/06/26 13:44:58;;;;;;;6.10;5.60;;;;;;;;;;5016376;28;20506;-74
2021/06/26 13:47:24;;;;;;;4.63;4.23;;;;;;;;;;5018354;28;20445;-74
2021/06/26 13:49:50;;;;;;;4.60;4.20;;;;;;;;;;5003550;28;20425;-74
2021/06/26 13:52:16;;;;;;;4.10;3.80;;;;;;;;;;5001054;28;20475;-73
2021/06/26 13:54:42;;;;;;;5.83;5.37;;;;;;;;;;5000879;28;20472;-74
2021/06/26 13:57:08;;;;;;;5.67;5.17;;;;;;;;;;5000962;28;20448;-74
2021/06/26 13:59:34;;;;;;;5.40;4.90;;;;;;;;;;5016907;28;20559;-73
2021/06/26 14:02:00;;;;;;;6.30;5.30;;;;;;;;;;5004386;28;20430;-74
2021/06/26 14:04:26;;;;;;;7.00;5.17;;;;;;;;;;5001020;28;20441;-74
2021/06/26 14:06:52;;;;;;;5.43;4.93;;;;;;;;;;5000559;28;20448;-74
2021/06/26 14:09:18;;;;;;;5.90;5.40;;;;;;;;;;4999548;28;20408;-74
2021/06/26 14:11:44;;;;;;;6.13;5.53;;;;;;;;;;5001048;28;20530;-74
2021/06/26 14:14:10;;;;;;;6.00;5.50;;;;;;;;;;5003771;28;20426;-75
2021/06/26 14:16:36;;;;;;;6.23;5.63;;;;;;;;;;5001233;28;20976;-74
2021/06/26 14:19:02;;;;;;;5.90;5.27;;;;;;;;;;4999786;28;20485;-74
2021/06/26 14:21:28;;;;;;;7.47;4.90;;;;;;;;;;4999405;28;20446;-74
2021/06/26 14:23:56;;;;;;;6.00;5.40;;;;;;;;;;5015154;28;20810;-74
2021/06/26 14:26:21;;;;;;;6.27;5.77;;;;;;;;;;5017962;28;20916;-74
2021/06/26 14:28:48;;;;;;;6.77;6.13;;;;;;;;;;5000796;28;20426;-74
2021/06/26 14:31:14;;;;;;;6.93;5.47;;;;;;;;;;5000574;28;20521;-74
2021/06/26 14:33:40;;;;;;;6.83;6.10;;;;;;;;;;5000535;28;20910;-74
2021/06/26 14:36:06;;;;;;;6.50;5.80;;;;;;;;;;5000534;28;20477;-75
2021/06/26 14:38:32;;;;;;;6.57;5.93;;;;;;;;;;5016454;28;20769;-75